Time;durP1;ratioP1;P1;durP2;ratioP2;P2;SDS_P1;SDS_P2;PMS_P1;PMS_P2;Temp;Humidity;BMP_temperature;BMP_pressure;BME280_temperature;BME280_humidity;BME280_pressure;Samples;Min_cycle;Max_cycle;Signal;HPM_P1;HPM_P2
2023/01/31 09:43:35;;;;;;;13.97;6.90;;;;;;;4.00;100.00;99720.50;5108980;28;20560;-88
2023/01/31 09:46:06;;;;;;;15.40;6.10;;;;;;;4.53;98.96;99713.16;5092194;28;38858;-85
2023/01/31 09:48:37;;;;;;;10.27;5.93;;;;;;;4.97;90.33;99709.41;5139754;27;41680;-84
2023/01/31 09:51:06;;;;;;;12.77;5.80;;;;;;;5.43;86.24;99705.53;5125826;27;42773;-86
2023/01/31 09:53:37;;;;;;;12.23;6.37;;;;;;;5.85;83.64;99732.34;5091080;28;42255;-87
2023/01/31 09:56:16;;;;;;;11.03;5.97;;;;;;;6.05;81.65;99728.25;5091928;28;39014;-83
2023/01/31 09:58:56;;;;;;;10.83;5.97;;;;;;;6.36;78.42;99750.97;5108445;28;41176;-85
2023/01/31 10:01:29;;;;;;;12.03;5.90;;;;;;;6.55;77.03;99754.78;5108158;28;41710;-84
2023/01/31 10:04:20;;;;;;;12.00;5.93;;;;;;;6.73;76.10;99756.78;5125689;27;41724;-84
2023/01/31 10:06:54;;;;;;;9.07;5.90;;;;;;;6.74;74.60;99755.88;5120014;27;40067;-85
2023/01/31 10:09:29;;;;;;;10.07;6.30;;;;;;;7.03;74.84;99757.56;5091837;28;41719;-87
2023/01/31 10:12:00;;;;;;;9.27;6.03;;;;;;;7.75;72.03;99760.31;5108028;28;43322;-86
2023/01/31 10:14:35;;;;;;;9.53;6.30;;;;;;;8.15;68.59;99767.59;5139557;27;42249;-85
2023/01/31 10:17:12;;;;;;;11.93;6.20;;;;;;;8.23;67.05;99768.16;5124643;27;39363;-86
2023/01/31 10:19:47;;;;;;;14.40;6.53;;;;;;;8.05;66.42;99747.72;5105850;28;42569;-86
2023/01/31 10:22:21;;;;;;;9.70;5.20;;;;;;;7.98;66.35;99755.03;5090255;28;41511;-85
2023/01/31 10:24:56;;;;;;;9.87;5.87;;;;;;;8.12;65.76;99763.28;5091081;28;41408;-83
2023/01/31 10:27:39;;;;;;;10.27;6.17;;;;;;;8.07;65.66;99754.66;5140829;27;41078;-86
2023/01/31 10:30:16;;;;;;;9.63;6.40;;;;;;;8.70;63.98;99761.03;5091370;28;40978;-89
2023/01/31 10:32:47;;;;;;;10.40;5.73;;;;;;;8.75;63.82;99739.72;5124260;27;41708;-88
2023/01/31 10:35:19;;;;;;;9.07;6.20;;;;;;;8.75;62.90;99718.59;5125388;27;40785;-85
2023/01/31 10:37:51;;;;;;;11.70;6.10;;;;;;;9.12;61.85;99746.97;5107387;28;39103;-84
2023/01/31 10:40:22;;;;;;;10.57;5.93;;;;;;;9.26;62.30;99748.13;5091133;28;40751;-84
2023/01/31 10:42:59;;;;;;;8.00;5.57;;;;;;;9.29;60.94;99747.09;5089320;28;42994;-84
2023/01/31 10:45:30;;;;;;;7.47;5.77;;;;;;;9.30;61.00;99733.81;5090702;28;42653;-86
2023/01/31 10:48:06;;;;;;;10.57;5.73;;;;;;;9.27;60.88;99727.81;5090339;28;38645;-86
2023/01/31 10:50:44;;;;;;;12.13;6.03;;;;;;;9.20;61.67;99721.94;5105777;28;41663;-86
2023/01/31 10:53:29;;;;;;;10.67;5.67;;;;;;;8.86;61.79;99716.38;5084688;28;42660;-85
2023/01/31 10:56:05;;;;;;;9.27;5.33;;;;;;;8.57;62.11;99712.28;5076945;28;41081;-85
2023/01/31 10:58:34;;;;;;;11.90;6.27;;;;;;;8.34;62.97;99701.78;5090343;28;39995;-85
2023/01/31 11:01:07;;;;;;;9.87;5.50;;;;;;;8.02;63.36;99693.34;5076939;28;40649;-82
2023/01/31 11:03:35;;;;;;;9.87;5.50;;;;;;;7.85;64.48;99688.69;5093350;28;41774;-82
2023/01/31 11:06:05;;;;;;;9.37;5.13;;;;;;;7.86;65.12;99697.47;5093357;28;43211;-81
2023/01/31 11:08:36;;;;;;;8.67;5.43;;;;;;;7.81;64.74;99700.25;5094261;28;41527;-83
2023/01/31 11:11:09;;;;;;;10.60;5.30;;;;;;;7.68;65.42;99675.28;5091966;28;43258;-86
2023/01/31 11:13:39;;;;;;;9.57;5.30;;;;;;;7.54;65.47;99667.06;5093048;28;41973;-85
2023/01/31 11:16:12;;;;;;;8.33;4.43;;;;;;;7.49;65.55;99669.84;5076783;28;41340;-85
2023/01/31 11:18:46;;;;;;;12.33;4.67;;;;;;;7.30;65.83;99642.44;5110609;28;40549;-86
2023/01/31 11:21:22;;;;;;;7.53;4.47;;;;;;;7.32;66.50;99630.06;5091044;28;41567;-90
2023/01/31 11:23:51;;;;;;;8.00;5.03;;;;;;;7.34;66.83;99622.97;5076356;28;43226;-87
2023/01/31 11:26:27;;;;;;;12.37;4.53;;;;;;;7.39;67.06;99605.22;5075707;28;42421;-83
2023/01/31 11:28:55;;;;;;;9.73;4.47;;;;;;;7.60;66.18;99618.50;5093406;28;38485;-85
2023/01/31 11:31:30;;;;;;;11.87;5.43;;;;;;;7.84;66.38;99613.13;5075765;28;42375;-87
2023/01/31 11:34:01;;;;;;;6.87;4.57;;;;;;;8.17;65.75;99629.38;5076707;28;41655;-84
2023/01/31 11:36:33;;;;;;;10.03;4.80;;;;;;;8.42;64.83;99637.19;5076180;28;42722;-86
2023/01/31 11:39:18;;;;;;;9.93;4.73;;;;;;;8.27;63.64;99617.56;5090425;28;40906;-85
2023/01/31 11:41:48;;;;;;;9.20;5.00;;;;;;;8.21;63.77;99620.44;5075225;28;41840;-85
2023/01/31 11:44:18;;;;;;;8.97;4.77;;;;;;;7.98;63.86;99620.50;5076309;28;45156;-86
2023/01/31 11:46:52;;;;;;;9.13;4.43;;;;;;;8.01;64.42;99624.81;5075547;28;42710;-85
2023/01/31 11:49:29;;;;;;;11.43;4.73;;;;;;;7.85;64.62;99624.53;5110215;28;40168;-86
2023/01/31 11:51:59;;;;;;;8.77;4.40;;;;;;;7.70;64.92;99610.19;5109613;28;42821;-84
2023/01/31 11:54:31;;;;;;;9.03;5.07;;;;;;;7.61;65.47;99601.78;5093043;28;41938;-83
2023/01/31 11:57:00;;;;;;;12.47;5.13;;;;;;;7.51;65.83;99617.09;5075601;28;42231;-85
2023/01/31 11:59:29;;;;;;;8.50;5.23;;;;;;;7.25;66.29;99594.34;5075608;28;40130;-86
2023/01/31 12:02:01;;;;;;;9.07;4.70;;;;;;;7.20;66.55;99594.50;5074968;28;40619;-85
2023/01/31 12:04:33;;;;;;;7.87;4.93;;;;;;;7.12;66.91;99596.56;5092231;28;42439;-84
2023/01/31 12:07:04;;;;;;;7.47;3.97;;;;;;;7.19;67.37;99607.72;5092063;28;41262;-82
2023/01/31 12:09:42;;;;;;;8.40;4.10;;;;;;;7.19;67.29;99613.00;5075617;28;39160;-85
2023/01/31 12:12:25;;;;;;;12.83;5.07;;;;;;;7.12;67.48;99607.09;5093387;28;42304;-84
2023/01/31 12:14:56;;;;;;;8.17;4.37;;;;;;;7.06;67.91;99596.78;5079671;28;41681;-86
2023/01/31 12:17:26;;;;;;;8.93;4.90;;;;;;;7.02;68.14;99604.88;5074818;28;42295;-85
2023/01/31 12:20:11;;;;;;;11.03;5.43;;;;;;;6.98;68.32;99587.44;5075997;28;40364;-84
2023/01/31 12:22:48;;;;;;;11.50;5.33;;;;;;;6.99;68.60;99607.59;5075344;28;42161;-88
2023/01/31 12:25:27;;;;;;;8.13;4.63;;;;;;;6.96;68.48;99594.53;5076072;28;42648;-90
2023/01/31 12:28:09;;;;;;;7.87;4.77;;;;;;;6.85;68.67;99582.63;5075078;28;41891;-86
2023/01/31 12:31:05;;;;;;;14.17;6.47;;;;;;;6.71;68.65;99553.28;5076336;28;39969;-84
2023/01/31 12:33:53;;;;;;;10.57;5.23;;;;;;;6.78;68.98;99570.59;5074898;28;40657;-82
2023/01/31 12:36:33;;;;;;;14.53;5.37;;;;;;;6.80;68.91;99581.91;5075238;28;45119;-82
2023/01/31 12:39:16;;;;;;;8.73;5.60;;;;;;;6.81;69.39;99586.28;5108964;28;42316;-82
2023/01/31 12:41:54;;;;;;;12.43;5.47;;;;;;;6.79;69.63;99585.50;5107946;28;39784;-86
2023/01/31 12:44:38;;;;;;;12.70;6.00;;;;;;;6.66;69.47;99570.19;5109074;28;40787;-86
2023/01/31 12:47:22;;;;;;;11.17;5.03;;;;;;;6.78;69.36;99578.50;5084020;28;42665;-85
2023/01/31 12:50:19;;;;;;;15.13;5.93;;;;;;;6.75;69.14;99578.59;5055645;28;42041;-86
2023/01/31 12:53:03;;;;;;;9.47;4.77;;;;;;;6.52;69.33;99541.72;5065904;28;40448;-84
2023/01/31 12:55:38;;;;;;;12.23;5.60;;;;;;;6.63;69.82;99539.56;5089080;28;42224;-82
2023/01/31 12:58:23;;;;;;;10.53;5.20;;;;;;;6.73;69.39;99534.81;5074962;28;43273;-86
2023/01/31 13:01:01;;;;;;;10.17;5.30;;;;;;;6.71;69.50;99521.72;5075503;28;42324;-84
2023/01/31 13:03:42;;;;;;;15.23;5.57;;;;;;;6.55;69.60;99473.19;5074509;28;38896;-86
2023/01/31 13:06:14;;;;;;;10.30;4.70;;;;;;;6.83;69.25;99504.59;5075666;28;43642;-90
2023/01/31 13:08:49;;;;;;;12.40;5.40;;;;;;;6.87;69.33;99498.31;5074970;28;43070;-84
2023/01/31 13:11:21;;;;;;;10.77;5.27;;;;;;;6.91;69.41;99496.44;5074440;28;41131;-83
2023/01/31 13:13:52;;;;;;;10.50;4.50;;;;;;;6.92;69.23;99492.91;5090164;28;39866;-83
2023/01/31 13:16:23;;;;;;;11.03;5.10;;;;;;;6.96;68.72;99499.75;5088518;28;41785;-84
2023/01/31 13:18:53;;;;;;;10.17;5.43;;;;;;;6.97;69.04;99490.94;5091914;28;42115;-85
2023/01/31 13:21:26;;;;;;;12.13;5.03;;;;;;;6.98;69.05;99472.44;5091234;28;43454;-85
2023/01/31 13:24:00;;;;;;;8.77;4.43;;;;;;;6.91;68.80;99443.78;5109350;27;41449;-85
2023/01/31 13:26:32;;;;;;;10.30;5.10;;;;;;;7.02;68.81;99474.06;5074218;28;40553;-86
2023/01/31 13:29:05;;;;;;;8.97;4.80;;;;;;;7.03;68.63;99465.25;5076661;28;41595;-79
2023/01/31 13:31:39;;;;;;;12.17;5.40;;;;;;;6.88;68.76;99438.63;5091266;28;41071;-85
2023/01/31 13:34:14;;;;;;;9.87;4.93;;;;;;;6.90;68.84;99445.56;5076687;28;40008;-83
2023/01/31 13:36:45;;;;;;;10.97;4.97;;;;;;;7.00;69.00;99475.03;5074714;28;40674;-84
2023/01/31 13:39:20;;;;;;;9.47;4.67;;;;;;;7.00;69.13;99453.97;5089957;28;42789;-84
2023/01/31 13:41:48;;;;;;;9.00;4.90;;;;;;;7.04;69.17;99466.09;5091297;28;41067;-85
2023/01/31 13:44:16;;;;;;;11.43;4.87;;;;;;;6.98;68.70;99446.09;5108885;28;38989;-85
2023/01/31 13:46:51;;;;;;;9.83;5.80;;;;;;;7.04;68.74;99460.84;5074277;28;40711;-85
2023/01/31 13:49:26;;;;;;;9.67;5.07;;;;;;;6.97;68.84;99438.25;5105417;28;41797;-85
2023/01/31 13:51:57;;;;;;;7.77;4.27;;;;;;;7.05;68.83;99446.72;5059370;28;41261;-86
2023/01/31 13:54:33;;;;;;;9.40;5.03;;;;;;;7.07;69.14;99434.34;5088506;28;40274;-90
2023/01/31 13:57:02;;;;;;;12.27;5.47;;;;;;;6.96;68.94;99426.88;5073522;28;40957;-82
2023/01/31 13:59:33;;;;;;;10.20;5.30;;;;;;;7.02;68.95;99431.06;5092030;28;42659;-83
2023/01/31 14:02:04;;;;;;;12.33;5.10;;;;;;;6.82;69.25;99408.97;5092043;28;41828;-86
2023/01/31 14:04:34;;;;;;;12.43;4.47;;;;;;;6.92;69.34;99411.28;5108213;28;39474;-83
2023/01/31 14:07:22;;;;;;;11.47;4.60;;;;;;;6.94;69.30;99412.03;5107833;28;40695;-83
2023/01/31 14:10:27;;;;;;;10.17;4.57;;;;;;;6.91;69.42;99433.25;5074253;28;42843;-85
2023/01/31 14:13:25;;;;;;;9.73;4.63;;;;;;;6.88;69.51;99423.69;5073318;28;42495;-88
2023/01/31 14:15:55;;;;;;;10.17;3.80;;;;;;;6.69;69.68;99407.72;5074111;28;38503;-88
2023/01/31 14:18:40;;;;;;;9.83;4.57;;;;;;;6.92;69.73;99445.50;5073528;28;40634;-86
2023/01/31 14:21:53;;;;;;;9.43;4.30;;;;;;;6.90;69.71;99435.03;5125105;27;42011;-86
2023/01/31 14:25:05;;;;;;;15.30;4.57;;;;;;;6.93;69.79;99432.25;5074049;28;41606;-86
2023/01/31 14:28:02;;;;;;;10.83;4.27;;;;;;;6.90;70.03;99415.75;5072891;28;40894;-87
2023/01/31 14:30:41;;;;;;;10.70;4.20;;;;;;;6.92;69.39;99419.19;5077594;28;40496;-84
2023/01/31 14:33:20;;;;;;;8.90;4.63;;;;;;;6.89;69.64;99416.66;5110823;28;42312;-83
2023/01/31 14:36:20;;;;;;;7.90;3.90;;;;;;;6.87;69.92;99418.47;5077342;28;42724;-83
2023/01/31 14:39:39;;;;;;;9.40;4.60;;;;;;;6.68;69.99;99392.84;5054583;28;39873;-84
2023/01/31 14:42:39;;;;;;;7.73;4.53;;;;;;;6.83;70.09;99415.09;5006683;28;40523;-85
2023/01/31 14:45:28;;;;;;;9.67;4.50;;;;;;;6.58;70.38;99378.31;4981367;28;42203;-85
2023/01/31 14:48:19;;;;;;;9.10;4.53;;;;;;;6.64;70.73;99403.56;5074895;28;40803;-84
2023/01/31 14:51:14;;;;;;;11.17;4.73;;;;;;;6.58;71.03;99399.38;5074774;28;39373;-88
2023/01/31 14:54:07;;;;;;;11.47;4.77;;;;;;;6.52;71.14;99399.63;5076378;28;41827;-90
2023/01/31 14:56:54;;;;;;;8.83;4.40;;;;;;;6.68;71.27;99421.78;5091133;28;43022;-85
2023/01/31 14:59:29;;;;;;;8.90;4.33;;;;;;;6.69;71.40;99412.13;5076510;28;40813;-84
2023/01/31 15:02:00;;;;;;;12.63;4.67;;;;;;;6.59;71.90;99393.19;5076482;28;38937;-85
2023/01/31 15:04:28;;;;;;;8.10;4.33;;;;;;;6.45;72.43;99384.97;5076549;28;41912;-83
2023/01/31 15:06:57;;;;;;;8.53;4.13;;;;;;;6.37;72.37;99363.34;5094232;28;42886;-85
2023/01/31 15:09:35;;;;;;;9.90;4.50;;;;;;;6.61;72.50;99403.69;5093286;28;42015;-85
